createdAt,value
2022-11-29T00:01:57.739Z,93.42
2022-11-29T00:04:26.783Z,93.65
2022-11-29T00:06:55.597Z,92.85
2022-11-29T00:09:24.595Z,92.50
2022-11-29T00:12:12.114Z,92.70
2022-11-29T00:14:42.403Z,92.50
2022-11-29T00:17:11.332Z,92.62
2022-11-29T00:19:40.263Z,94.06
2022-11-29T00:22:09.426Z,93.96
2022-11-29T00:24:38.466Z,93.44
2022-11-29T00:27:07.311Z,93.55
2022-11-29T00:29:36.208Z,94.28
2022-11-29T00:32:05.508Z,94.29
2022-11-29T00:34:34.393Z,93.46
2022-11-29T00:37:03.526Z,93.55
2022-11-29T00:39:32.276Z,93.62
2022-11-29T00:42:01.172Z,93.97
2022-11-29T00:44:30.058Z,93.49
2022-11-29T00:46:59.170Z,93.60
2022-11-29T00:49:27.947Z,93.66
2022-11-29T00:51:57.055Z,94.23
2022-11-29T00:54:26.051Z,94.79
2022-11-29T00:56:54.937Z,95.12
2022-11-29T00:59:23.825Z,95.13
2022-11-29T01:01:52.823Z,94.73
2022-11-29T01:04:22.013Z,94.86
2022-11-29T01:06:53.785Z,95.66
2022-11-29T01:09:22.463Z,96.76
2022-11-29T01:11:51.562Z,96.60
2022-11-29T01:14:20.763Z,95.26
2022-11-29T01:16:49.669Z,95.58
2022-11-29T01:19:18.770Z,95.45
2022-11-29T01:21:47.531Z,95.25
2022-11-29T01:24:16.427Z,94.79
2022-11-29T01:26:45.311Z,94.40
2022-11-29T01:29:14.510Z,95.61
2022-11-29T01:31:43.317Z,96.11
2022-11-29T01:34:12.089Z,95.53
2022-11-29T01:36:40.988Z,95.56
2022-11-29T01:39:11.747Z,95.59
2022-11-29T01:41:40.820Z,95.70
2022-11-29T01:44:12.894Z,96.01
2022-11-29T01:46:46.893Z,96.29
2022-11-29T01:49:28.685Z,97.07
2022-11-29T01:52:24.513Z,97.26
2022-11-29T01:55:02.191Z,98.74
2022-11-29T01:57:34.025Z,96.37
2022-11-29T02:00:15.839Z,96.60
2022-11-29T02:02:51.874Z,96.96
2022-11-29T02:05:21.793Z,96.41
2022-11-29T02:07:54.055Z,97.12
2022-11-29T02:10:44.192Z,98.24
2022-11-29T02:13:53.436Z,99.75
2022-11-29T02:16:34.818Z,98.77
2022-11-29T02:19:45.832Z,99.46
2022-11-29T02:22:29.227Z,99.31
2022-11-29T02:25:55.156Z,99.22
2022-11-29T02:28:42.282Z,99.87
2022-11-29T02:32:26.852Z,99.56
2022-11-29T02:35:23.482Z,98.66
2022-11-29T02:38:19.417Z,98.45
2022-11-29T02:41:13.321Z,98.34
2022-11-29T02:44:38.691Z,99.39
2022-11-29T02:47:28.589Z,99.25
2022-11-29T02:50:35.069Z,99.85
2022-11-29T02:53:30.685Z,100.00
2022-11-29T02:56:19.039Z,99.89
2022-11-29T02:59:05.531Z,100.00
2022-11-29T03:02:10.237Z,100.00
2022-11-29T03:04:55.852Z,99.92
2022-11-29T03:07:48.906Z,100.00
2022-11-29T03:11:23.029Z,100.00
2022-11-29T03:14:38.928Z,100.00
2022-11-29T03:17:48.989Z,100.00
2022-11-29T03:20:58.788Z,100.00
2022-11-29T03:23:51.326Z,99.92
2022-11-29T03:26:51.974Z,100.00
2022-11-29T03:29:35.556Z,100.00
2022-11-29T03:32:27.385Z,99.96
2022-11-29T03:35:15.544Z,100.00
2022-11-29T03:37:53.335Z,100.00
2022-11-29T03:40:41.885Z,100.00
2022-11-29T03:43:25.007Z,100.00
2022-11-29T03:46:11.686Z,100.00
2022-11-29T03:48:51.123Z,100.00
2022-11-29T03:51:34.661Z,100.00
2022-11-29T03:54:11.262Z,100.00
2022-11-29T03:56:41.828Z,100.00
2022-11-29T03:59:29.839Z,100.00
2022-11-29T04:02:39.411Z,100.00
2022-11-29T04:05:45.329Z,100.00
2022-11-29T04:08:45.051Z,100.00
2022-11-29T04:11:37.506Z,100.00
2022-11-29T04:14:32.188Z,100.00
2022-11-29T04:17:49.952Z,100.00
2022-11-29T04:21:16.583Z,100.00
2022-11-29T04:24:15.976Z,100.00
2022-11-29T04:27:18.871Z,100.00
2022-11-29T04:30:05.631Z,100.00
2022-11-29T04:33:02.381Z,100.00
2022-11-29T04:36:02.037Z,100.00
2022-11-29T04:39:08.318Z,100.00
2022-11-29T04:42:30.953Z,100.00
2022-11-29T04:45:42.521Z,100.00
2022-11-29T04:48:20.072Z,100.00
2022-11-29T04:51:16.582Z,100.00
2022-11-29T04:54:02.936Z,100.00
2022-11-29T04:56:39.958Z,100.00
2022-11-29T04:59:40.989Z,100.00
2022-11-29T05:02:58.759Z,100.00
2022-11-29T05:05:36.708Z,100.00
2022-11-29T05:08:39.182Z,100.00
2022-11-29T05:11:43.827Z,100.00
2022-11-29T05:15:02.624Z,100.00
2022-11-29T05:17:40.329Z,100.00
2022-11-29T05:20:18.577Z,100.00
2022-11-29T05:23:31.032Z,100.00
2022-11-29T05:26:19.199Z,100.00
2022-11-29T05:29:11.480Z,100.00
2022-11-29T05:32:07.784Z,100.00
2022-11-29T05:35:27.747Z,100.00
2022-11-29T05:38:07.995Z,100.00
2022-11-29T05:41:16.598Z,100.00
2022-11-29T05:44:17.166Z,100.00
2022-11-29T05:47:00.331Z,100.00
2022-11-29T05:49:51.396Z,100.00
2022-11-29T05:52:43.265Z,100.00
2022-11-29T05:55:14.957Z,100.00
2022-11-29T05:58:12.649Z,100.00
2022-11-29T06:00:59.911Z,100.00
2022-11-29T06:03:42.137Z,100.00
2022-11-29T06:06:43.743Z,100.00
2022-11-29T06:09:52.379Z,100.00
2022-11-29T06:12:24.787Z,100.00
2022-11-29T06:15:33.928Z,100.00
2022-11-29T06:18:26.369Z,100.00
2022-11-29T06:21:23.040Z,100.00
2022-11-29T06:24:56.910Z,100.00
2022-11-29T06:27:57.888Z,100.00
2022-11-29T06:30:52.467Z,100.00
2022-11-29T06:33:25.691Z,100.00
2022-11-29T06:36:12.361Z,100.00
2022-11-29T06:38:41.843Z,100.00
2022-11-29T06:41:19.029Z,100.00
2022-11-29T06:43:48.887Z,100.00
2022-11-29T06:46:26.991Z,100.00
2022-11-29T06:49:27.345Z,100.00
2022-11-29T06:52:37.479Z,100.00
2022-11-29T06:55:28.722Z,100.00
2022-11-29T06:58:12.492Z,100.00
2022-11-29T07:00:56.585Z,100.00
2022-11-29T07:03:50.180Z,100.00
2022-11-29T07:06:27.479Z,100.00
2022-11-29T07:17:03.819Z,100.00
2022-11-29T07:19:56.052Z,100.00
2022-11-29T07:23:02.975Z,100.00
2022-11-29T07:26:10.810Z,100.00
2022-11-29T07:29:01.916Z,100.00
2022-11-29T07:32:16.446Z,100.00
2022-11-29T07:35:10.769Z,100.00
2022-11-29T07:38:03.607Z,100.00
2022-11-29T07:41:01.333Z,100.00
2022-11-29T07:43:50.678Z,100.00
2022-11-29T07:46:19.728Z,100.00
2022-11-29T07:48:59.513Z,100.00
2022-11-29T07:51:28.505Z,100.00
2022-11-29T07:53:57.514Z,100.00
2022-11-29T07:56:26.734Z,100.00
2022-11-29T07:58:55.774Z,100.00
2022-11-29T08:01:25.150Z,100.00
2022-11-29T08:03:54.398Z,100.00
2022-11-29T08:06:27.105Z,100.00
2022-11-29T08:09:04.201Z,100.00
2022-11-29T08:11:33.093Z,100.00
2022-11-29T08:14:04.680Z,100.00
2022-11-29T08:16:33.776Z,100.00
2022-11-29T08:19:02.838Z,100.00
2022-11-29T08:21:31.731Z,100.00
2022-11-29T08:24:00.829Z,100.00
2022-11-29T08:26:31.848Z,100.00
2022-11-29T08:29:00.922Z,100.00
2022-11-29T08:32:01.637Z,100.00
2022-11-29T08:34:30.825Z,100.00
2022-11-29T08:37:01.124Z,100.00
2022-11-29T08:40:06.323Z,100.00
2022-11-29T08:42:35.882Z,100.00
2022-11-29T08:45:06.639Z,100.00
2022-11-29T08:47:37.009Z,100.00
2022-11-29T08:50:21.923Z,100.00
2022-11-29T08:53:09.461Z,100.00
2022-11-29T08:56:53.450Z,100.00
2022-11-29T08:59:02.055Z,100.00
2022-11-29T09:01:32.008Z,100.00
2022-11-29T09:04:03.184Z,100.00
2022-11-29T09:06:43.111Z,100.00
2022-11-29T09:09:11.802Z,100.00
2022-11-29T09:11:40.475Z,100.00
2022-11-29T09:14:16.273Z,100.00
2022-11-29T09:16:46.539Z,100.00
2022-11-29T09:23:25.641Z,100.00
2022-11-29T09:25:55.888Z,100.00
2022-11-29T09:29:22.610Z,100.00
2022-11-29T09:32:26.698Z,100.00
2022-11-29T09:34:55.828Z,100.00
2022-11-29T09:38:30.243Z,100.00
2022-11-29T09:41:39.708Z,100.00
2022-11-29T09:44:56.454Z,100.00
2022-11-29T09:49:00.978Z,100.00
2022-11-29T09:51:55.966Z,100.00
2022-11-29T09:55:04.273Z,100.00
2022-11-29T10:01:48.358Z,100.00
2022-11-29T10:09:03.750Z,99.96
2022-11-29T10:19:46.280Z,99.93
2022-11-29T10:33:03.133Z,99.99
2022-11-29T10:35:34.298Z,100.00
2022-11-29T10:38:29.565Z,100.00
2022-11-29T10:41:10.036Z,100.00
2022-11-29T10:43:39.602Z,99.92
2022-11-29T10:46:36.489Z,100.00
2022-11-29T10:49:15.938Z,99.98
2022-11-29T10:51:49.433Z,100.00
2022-11-29T10:54:33.108Z,100.00
2022-11-29T10:57:02.347Z,100.00
2022-11-29T10:59:33.622Z,100.00
2022-11-29T11:02:02.391Z,100.00
2022-11-29T11:04:48.582Z,99.96
2022-11-29T11:07:36.596Z,100.00
2022-11-29T11:10:27.039Z,99.87
2022-11-29T11:13:07.566Z,99.89
2022-11-29T11:15:37.018Z,100.00
2022-11-29T11:18:07.481Z,100.00
2022-11-29T11:20:44.599Z,100.00
2022-11-29T11:23:30.952Z,100.00
2022-11-29T11:26:11.702Z,99.78
2022-11-29T11:29:02.785Z,100.00
2022-11-29T11:31:38.631Z,99.51
2022-11-29T11:34:32.493Z,99.22
2022-11-29T11:37:16.806Z,98.45
2022-11-29T11:39:50.132Z,99.32
2022-11-29T11:42:37.345Z,99.14
2022-11-29T11:45:37.250Z,98.97
2022-11-29T11:48:15.834Z,98.23
2022-11-29T11:50:56.502Z,98.12
2022-11-29T11:53:36.824Z,98.53
2022-11-29T11:56:13.647Z,98.97
2022-11-29T11:58:58.280Z,98.72
2022-11-29T12:01:38.834Z,99.39
2022-11-29T12:04:22.148Z,99.39
2022-11-29T12:07:00.342Z,99.43
2022-11-29T12:09:55.198Z,99.49
2022-11-29T12:12:41.231Z,100.00
2022-11-29T12:15:33.678Z,99.55
2022-11-29T12:18:26.077Z,98.44
2022-11-29T12:21:12.034Z,97.23
2022-11-29T12:23:54.147Z,96.94
2022-11-29T12:29:23.207Z,97.35
2022-11-29T12:32:07.165Z,96.38
2022-11-29T12:34:50.672Z,96.18
2022-11-29T12:37:19.062Z,96.07
2022-11-29T12:40:24.101Z,96.38
2022-11-29T12:43:13.503Z,95.87
2022-11-29T12:46:04.611Z,96.56
2022-11-29T12:48:46.184Z,97.45
2022-11-29T12:51:39.901Z,96.88
2022-11-29T12:54:40.695Z,96.77
2022-11-29T12:57:43.667Z,98.52
2022-11-29T13:00:19.810Z,98.56
2022-11-29T13:03:17.210Z,98.48
2022-11-29T13:06:17.510Z,98.15
2022-11-29T13:09:15.199Z,98.08
2022-11-29T13:11:58.577Z,99.03
2022-11-29T13:14:49.837Z,98.77
2022-11-29T13:17:45.386Z,97.96
2022-11-29T13:20:38.648Z,97.92
2022-11-29T13:23:45.463Z,98.51
2022-11-29T13:26:22.641Z,98.74
2022-11-29T13:28:53.047Z,98.78
2022-11-29T13:31:52.458Z,98.58
2022-11-29T13:34:52.659Z,98.43
2022-11-29T13:37:55.200Z,98.41
2022-11-29T13:40:49.292Z,98.17
2022-11-29T13:43:29.194Z,98.40
2022-11-29T13:46:15.985Z,98.75
2022-11-29T13:48:50.762Z,99.41
2022-11-29T13:51:27.218Z,98.90
2022-11-29T13:53:58.788Z,99.45
2022-11-29T13:56:46.710Z,98.66
2022-11-29T13:59:28.540Z,98.82
2022-11-29T14:01:58.719Z,98.76
2022-11-29T14:04:46.017Z,98.62
2022-11-29T14:07:19.844Z,99.31
2022-11-29T14:10:07.535Z,99.86
2022-11-29T14:12:49.824Z,99.74
2022-11-29T14:15:32.434Z,99.46
2022-11-29T14:18:09.061Z,99.33
2022-11-29T14:20:44.342Z,99.88
2022-11-29T14:23:31.514Z,99.98
2022-11-29T14:26:01.082Z,100.00
2022-11-29T14:28:40.965Z,100.00
2022-11-29T14:31:10.719Z,100.00
2022-11-29T14:34:13.240Z,99.92
2022-11-29T14:37:13.993Z,99.90
2022-11-29T14:39:50.454Z,99.81
2022-11-29T14:42:21.705Z,99.91
2022-11-29T14:45:00.989Z,100.00
2022-11-29T14:47:47.501Z,100.00
2022-11-29T14:50:39.953Z,100.00
2022-11-29T14:53:34.993Z,100.00
2022-11-29T14:56:42.895Z,100.00
2022-11-29T14:59:47.967Z,100.00
2022-11-29T15:02:42.734Z,100.00
2022-11-29T15:05:20.579Z,100.00
2022-11-29T15:08:16.692Z,100.00
2022-11-29T15:11:03.269Z,100.00
2022-11-29T15:13:38.242Z,100.00
2022-11-29T15:16:24.312Z,100.00
2022-11-29T15:19:17.269Z,100.00
2022-11-29T15:22:27.777Z,100.00
2022-11-29T15:25:03.155Z,100.00
2022-11-29T15:27:34.152Z,100.00
2022-11-29T15:30:23.715Z,100.00
2022-11-29T15:32:52.715Z,100.00
2022-11-29T15:35:21.626Z,100.00
2022-11-29T15:37:52.165Z,100.00
2022-11-29T15:40:31.620Z,100.00
2022-11-29T15:43:26.545Z,100.00
2022-11-29T15:45:57.348Z,100.00
2022-11-29T15:48:34.435Z,100.00
2022-11-29T15:51:27.571Z,100.00
2022-11-29T15:54:13.295Z,100.00
2022-11-29T15:56:53.993Z,100.00
2022-11-29T15:59:45.849Z,100.00
2022-11-29T16:02:32.110Z,100.00
2022-11-29T16:05:21.896Z,100.00
2022-11-29T16:07:56.128Z,100.00
2022-11-29T16:10:35.305Z,100.00
2022-11-29T16:13:41.759Z,100.00
2022-11-29T16:16:20.502Z,100.00
2022-11-29T16:18:51.072Z,100.00
2022-11-29T16:21:29.970Z,100.00
2022-11-29T16:24:10.670Z,100.00
2022-11-29T16:26:44.597Z,100.00
2022-11-29T16:29:31.035Z,100.00
2022-11-29T16:32:00.584Z,100.00
2022-11-29T16:34:33.967Z,100.00
2022-11-29T16:37:29.148Z,100.00
2022-11-29T16:40:01.742Z,100.00
2022-11-29T16:42:33.704Z,100.00
2022-11-29T16:45:02.309Z,100.00
2022-11-29T16:47:53.300Z,100.00
2022-11-29T16:50:23.089Z,100.00
2022-11-29T16:52:56.398Z,100.00
2022-11-29T16:55:26.727Z,100.00
2022-11-29T16:57:55.516Z,100.00
2022-11-29T17:00:34.650Z,100.00
2022-11-29T17:03:03.571Z,100.00
2022-11-29T17:05:32.416Z,100.00
2022-11-29T17:08:01.285Z,100.00
2022-11-29T17:10:30.257Z,100.00
2022-11-29T17:12:59.053Z,100.00
2022-11-29T17:15:27.971Z,100.00
2022-11-29T17:17:56.816Z,100.00
2022-11-29T17:20:25.575Z,100.00
2022-11-29T17:22:54.387Z,100.00
2022-11-29T17:25:23.137Z,100.00
2022-11-29T17:27:51.838Z,100.00
2022-11-29T17:30:20.649Z,100.00
2022-11-29T17:32:49.393Z,100.00
2022-11-29T17:35:18.144Z,100.00
2022-11-29T17:37:47.008Z,100.00
2022-11-29T17:40:15.906Z,100.00
2022-11-29T17:42:44.861Z,100.00
2022-11-29T17:45:13.749Z,100.00
2022-11-29T17:47:42.484Z,100.00
2022-11-29T17:50:11.944Z,100.00
2022-11-29T17:52:41.847Z,100.00
2022-11-29T17:55:11.085Z,100.00
2022-11-29T17:57:39.813Z,100.00
2022-11-29T18:00:13.257Z,100.00
2022-11-29T18:02:42.051Z,100.00
2022-11-29T18:05:11.066Z,100.00
2022-11-29T18:07:58.223Z,100.00
2022-11-29T18:10:29.318Z,100.00
2022-11-29T18:12:58.149Z,100.00
2022-11-29T18:15:26.976Z,100.00
2022-11-29T18:17:56.892Z,100.00
2022-11-29T18:20:25.600Z,100.00
2022-11-29T18:22:54.360Z,100.00
2022-11-29T18:25:39.877Z,100.00
2022-11-29T18:28:08.980Z,100.00
2022-11-29T18:30:37.800Z,100.00
2022-11-29T18:33:06.837Z,100.00
2022-11-29T18:35:35.628Z,100.00
2022-11-29T18:38:15.298Z,100.00
2022-11-29T18:40:45.992Z,100.00
2022-11-29T18:43:16.389Z,100.00
2022-11-29T18:45:45.191Z,100.00
2022-11-29T18:48:13.986Z,100.00
2022-11-29T18:50:42.746Z,100.00
2022-11-29T18:53:14.341Z,100.00
2022-11-29T18:55:43.400Z,100.00
2022-11-29T18:58:13.413Z,100.00
2022-11-29T19:00:42.213Z,100.00
2022-11-29T19:03:11.894Z,100.00
2022-11-29T19:05:40.610Z,100.00
2022-11-29T19:08:09.365Z,100.00
2022-11-29T19:10:38.949Z,100.00
2022-11-29T19:13:07.720Z,100.00
2022-11-29T19:15:36.563Z,100.00
2022-11-29T19:18:05.353Z,100.00
2022-11-29T19:20:34.359Z,100.00
2022-11-29T19:23:03.456Z,100.00
2022-11-29T19:25:34.943Z,100.00
2022-11-29T19:28:05.095Z,100.00
2022-11-29T19:30:35.485Z,100.00
2022-11-29T19:33:04.418Z,100.00
2022-11-29T19:35:34.937Z,100.00
2022-11-29T19:38:03.705Z,100.00
2022-11-29T19:40:33.336Z,100.00
2022-11-29T19:43:02.055Z,100.00
2022-11-29T19:45:30.777Z,100.00
2022-11-29T19:47:59.583Z,100.00
2022-11-29T19:50:28.384Z,100.00
2022-11-29T19:52:57.141Z,100.00
2022-11-29T19:55:25.867Z,100.00
2022-11-29T19:57:56.853Z,100.00
2022-11-29T20:00:25.781Z,100.00
2022-11-29T20:02:54.545Z,100.00
2022-11-29T20:05:23.814Z,100.00
2022-11-29T20:07:52.643Z,100.00
2022-11-29T20:10:21.390Z,100.00
2022-11-29T20:12:50.073Z,100.00
2022-11-29T20:15:18.860Z,100.00
2022-11-29T20:17:48.769Z,100.00
2022-11-29T20:20:18.503Z,100.00
2022-11-29T20:22:47.411Z,100.00
2022-11-29T20:25:16.260Z,100.00
2022-11-29T20:27:44.986Z,100.00
2022-11-29T20:30:14.613Z,100.00
2022-11-29T20:32:43.952Z,100.00
2022-11-29T20:35:13.441Z,100.00
2022-11-29T20:38:26.447Z,100.00
2022-11-29T20:41:08.622Z,100.00
2022-11-29T20:43:59.127Z,100.00
2022-11-29T20:46:29.117Z,100.00
2022-11-29T20:49:03.154Z,100.00
2022-11-29T20:51:51.563Z,100.00
2022-11-29T20:54:20.567Z,100.00
2022-11-29T20:56:49.948Z,100.00
2022-11-29T20:59:18.572Z,100.00
2022-11-29T21:01:47.367Z,100.00
2022-11-29T21:04:21.636Z,100.00
2022-11-29T21:06:52.021Z,100.00
2022-11-29T21:09:20.770Z,100.00
2022-11-29T21:11:49.857Z,100.00
2022-11-29T21:14:19.100Z,100.00
2022-11-29T21:16:48.170Z,100.00
2022-11-29T21:19:21.007Z,100.00
2022-11-29T21:22:04.764Z,100.00
2022-11-29T21:24:57.162Z,100.00
2022-11-29T21:27:35.001Z,100.00
2022-11-29T21:30:06.475Z,100.00
2022-11-29T21:32:35.683Z,100.00
2022-11-29T21:35:04.629Z,100.00
2022-11-29T21:37:33.541Z,100.00
2022-11-29T21:40:02.387Z,100.00
2022-11-29T21:42:31.075Z,100.00
2022-11-29T21:44:59.802Z,100.00
2022-11-29T21:47:28.464Z,100.00
2022-11-29T21:49:57.185Z,100.00
2022-11-29T21:52:25.920Z,100.00
2022-11-29T21:54:54.639Z,100.00
2022-11-29T21:57:23.541Z,100.00
2022-11-29T21:59:52.438Z,100.00
2022-11-29T22:02:21.394Z,100.00
2022-11-29T22:04:50.179Z,100.00
2022-11-29T22:07:18.960Z,100.00
2022-11-29T22:09:47.713Z,100.00
2022-11-29T22:12:32.952Z,100.00
2022-11-29T22:15:04.003Z,100.00
2022-11-29T22:17:32.903Z,100.00
2022-11-29T22:20:01.908Z,100.00
2022-11-29T22:22:30.989Z,100.00
2022-11-29T22:24:59.669Z,100.00
2022-11-29T22:27:28.414Z,100.00
2022-11-29T22:29:57.156Z,100.00
2022-11-29T22:32:26.151Z,100.00
2022-11-29T22:34:55.150Z,100.00
2022-11-29T22:37:24.036Z,100.00
2022-11-29T22:39:52.817Z,100.00
2022-11-29T22:42:21.705Z,100.00
2022-11-29T22:44:50.594Z,100.00
2022-11-29T22:47:19.588Z,100.00
2022-11-29T22:49:49.916Z,100.00
2022-11-29T22:52:18.619Z,100.00
2022-11-29T22:54:47.666Z,100.00
2022-11-29T22:57:16.591Z,100.00
2022-11-29T22:59:47.339Z,100.00
2022-11-29T23:02:16.162Z,100.00
2022-11-29T23:04:45.418Z,100.00
2022-11-29T23:07:14.511Z,100.00
2022-11-29T23:09:43.415Z,100.00
2022-11-29T23:12:12.196Z,100.00
2022-11-29T23:14:41.080Z,100.00
2022-11-29T23:17:09.881Z,100.00
2022-11-29T23:19:38.875Z,100.00
2022-11-29T23:22:07.776Z,100.00
2022-11-29T23:24:36.699Z,100.00
2022-11-29T23:27:05.549Z,100.00
2022-11-29T23:29:34.239Z,100.00
2022-11-29T23:32:03.172Z,100.00
2022-11-29T23:34:32.228Z,100.00
2022-11-29T23:37:01.123Z,100.00
2022-11-29T23:39:30.009Z,100.00
2022-11-29T23:41:58.901Z,100.00
2022-11-29T23:44:27.793Z,100.00
2022-11-29T23:46:56.576Z,100.00
2022-11-29T23:49:25.361Z,100.00
2022-11-29T23:51:54.454Z,100.00
2022-11-29T23:54:23.763Z,100.00
2022-11-29T23:56:52.653Z,100.00
2022-11-29T23:59:21.553Z,100.00
